sensor_id;sensor_type;location;lat;lon;timestamp;pressure;altitude;pressure_sealevel;temperature;humidity
29815;BME280;16708;50.426;7.664;2023-03-20T00:00:40;989.56;;;9.32;100.00
29815;BME280;16708;50.426;7.664;2023-03-20T00:05:35;989.64;;;9.27;100.00
29815;BME280;16708;50.426;7.664;2023-03-20T00:10:29;989.60;;;9.28;100.00
29815;BME280;16708;50.426;7.664;2023-03-20T00:15:23;989.65;;;9.25;100.00
29815;BME280;16708;50.426;7.664;2023-03-20T00:20:18;989.68;;;9.22;100.00
29815;BME280;16708;50.426;7.664;2023-03-20T00:25:12;989.72;;;9.23;100.00
29815;BME280;16708;50.426;7.664;2023-03-20T00:39:51;989.85;;;9.12;100.00
29815;BME280;16708;50.426;7.664;2023-03-20T00:44:46;989.88;;;9.09;100.00
29815;BME280;16708;50.426;7.664;2023-03-20T00:49:40;989.99;;;9.06;100.00
29815;BME280;16708;50.426;7.664;2023-03-20T00:54:35;989.95;;;9.01;100.00
29815;BME280;16708;50.426;7.664;2023-03-20T00:59:29;989.93;;;8.95;100.00
29815;BME280;16708;50.426;7.664;2023-03-20T01:04:23;990.03;;;8.86;100.00
29815;BME280;16708;50.426;7.664;2023-03-20T01:09:17;990.10;;;8.86;100.00
29815;BME280;16708;50.426;7.664;2023-03-20T01:14:10;990.14;;;8.82;100.00
29815;BME280;16708;50.426;7.664;2023-03-20T01:19:05;990.17;;;8.81;100.00
29815;BME280;16708;50.426;7.664;2023-03-20T01:23:58;990.17;;;8.82;100.00
29815;BME280;16708;50.426;7.664;2023-03-20T01:28:53;990.24;;;8.65;100.00
29815;BME280;16708;50.426;7.664;2023-03-20T01:33:46;990.41;;;8.44;100.00
29815;BME280;16708;50.426;7.664;2023-03-20T01:38:40;990.53;;;8.15;100.00
29815;BME280;16708;50.426;7.664;2023-03-20T01:53:22;990.56;;;7.92;100.00
29815;BME280;16708;50.426;7.664;2023-03-20T01:58:14;990.53;;;7.91;100.00
29815;BME280;16708;50.426;7.664;2023-03-20T02:03:08;990.47;;;7.86;100.00
29815;BME280;16708;50.426;7.664;2023-03-20T02:08:02;990.43;;;7.88;100.00
29815;BME280;16708;50.426;7.664;2023-03-20T02:12:54;990.47;;;7.94;100.00
29815;BME280;16708;50.426;7.664;2023-03-20T02:17:48;990.46;;;7.95;100.00
29815;BME280;16708;50.426;7.664;2023-03-20T02:42:17;990.19;;;7.70;100.00
29815;BME280;16708;50.426;7.664;2023-03-20T02:47:11;990.18;;;7.78;100.00
29815;BME280;16708;50.426;7.664;2023-03-20T02:56:54;990.22;;;7.68;100.00
29815;BME280;16708;50.426;7.664;2023-03-20T03:01:47;990.31;;;7.64;100.00
29815;BME280;16708;50.426;7.664;2023-03-20T03:06:40;990.27;;;7.64;100.00
29815;BME280;16708;50.426;7.664;2023-03-20T03:11:35;990.45;;;7.58;100.00
29815;BME280;16708;50.426;7.664;2023-03-20T03:16:29;990.40;;;7.58;100.00
29815;BME280;16708;50.426;7.664;2023-03-20T03:21:23;990.46;;;7.60;100.00
29815;BME280;16708;50.426;7.664;2023-03-20T03:26:18;990.44;;;7.62;100.00
29815;BME280;16708;50.426;7.664;2023-03-20T03:31:10;990.41;;;7.64;100.00
29815;BME280;16708;50.426;7.664;2023-03-20T03:36:04;990.62;;;7.62;100.00
29815;BME280;16708;50.426;7.664;2023-03-20T03:40:58;990.43;;;7.62;100.00
29815;BME280;16708;50.426;7.664;2023-03-20T03:45:53;990.43;;;7.66;100.00
29815;BME280;16708;50.426;7.664;2023-03-20T03:50:46;990.46;;;7.69;100.00
29815;BME280;16708;50.426;7.664;2023-03-20T03:55:41;990.49;;;7.71;100.00
29815;BME280;16708;50.426;7.664;2023-03-20T04:00:35;990.60;;;7.72;100.00
29815;BME280;16708;50.426;7.664;2023-03-20T04:05:29;990.71;;;7.77;100.00
29815;BME280;16708;50.426;7.664;2023-03-20T04:10:27;990.73;;;7.77;100.00
29815;BME280;16708;50.426;7.664;2023-03-20T04:15:18;990.76;;;7.63;100.00
29815;BME280;16708;50.426;7.664;2023-03-20T04:20:12;990.80;;;7.57;100.00
29815;BME280;16708;50.426;7.664;2023-03-20T04:25:06;990.74;;;7.55;100.00
29815;BME280;16708;50.426;7.664;2023-03-20T04:29:59;990.62;;;7.58;100.00
29815;BME280;16708;50.426;7.664;2023-03-20T04:34:54;990.61;;;7.63;100.00
29815;BME280;16708;50.426;7.664;2023-03-20T04:39:45;990.49;;;7.59;100.00
29815;BME280;16708;50.426;7.664;2023-03-20T04:44:39;990.47;;;7.54;100.00
29815;BME280;16708;50.426;7.664;2023-03-20T04:49:33;990.42;;;7.50;100.00
29815;BME280;16708;50.426;7.664;2023-03-20T04:54:27;990.61;;;7.41;100.00
29815;BME280;16708;50.426;7.664;2023-03-20T04:59:21;990.51;;;7.48;100.00
29815;BME280;16708;50.426;7.664;2023-03-20T05:04:15;990.67;;;7.49;100.00
29815;BME280;16708;50.426;7.664;2023-03-20T05:09:09;990.58;;;7.36;100.00
29815;BME280;16708;50.426;7.664;2023-03-20T05:14:03;990.64;;;7.30;100.00
29815;BME280;16708;50.426;7.664;2023-03-20T05:18:55;990.53;;;7.39;100.00
29815;BME280;16708;50.426;7.664;2023-03-20T05:23:49;990.59;;;7.48;100.00
29815;BME280;16708;50.426;7.664;2023-03-20T05:28:43;990.55;;;7.53;100.00
29815;BME280;16708;50.426;7.664;2023-03-20T05:33:37;990.59;;;7.52;100.00
29815;BME280;16708;50.426;7.664;2023-03-20T05:38:32;990.61;;;7.57;100.00
29815;BME280;16708;50.426;7.664;2023-03-20T05:43:25;990.52;;;7.45;100.00
29815;BME280;16708;50.426;7.664;2023-03-20T05:48:20;990.57;;;7.53;100.00
29815;BME280;16708;50.426;7.664;2023-03-20T05:53:13;990.56;;;7.59;100.00
29815;BME280;16708;50.426;7.664;2023-03-20T05:58:07;990.58;;;7.47;100.00
29815;BME280;16708;50.426;7.664;2023-03-20T06:03:02;990.56;;;7.45;100.00
29815;BME280;16708;50.426;7.664;2023-03-20T06:07:56;990.45;;;7.53;100.00
29815;BME280;16708;50.426;7.664;2023-03-20T06:12:50;990.46;;;7.69;100.00
29815;BME280;16708;50.426;7.664;2023-03-20T06:17:44;990.47;;;7.97;100.00
29815;BME280;16708;50.426;7.664;2023-03-20T06:22:38;990.43;;;8.10;100.00
29815;BME280;16708;50.426;7.664;2023-03-20T06:27:33;990.40;;;8.10;100.00
29815;BME280;16708;50.426;7.664;2023-03-20T06:32:24;990.53;;;8.02;100.00
29815;BME280;16708;50.426;7.664;2023-03-20T06:37:19;990.57;;;8.14;100.00
29815;BME280;16708;50.426;7.664;2023-03-20T06:42:13;990.60;;;7.97;100.00
29815;BME280;16708;50.426;7.664;2023-03-20T06:47:07;990.66;;;8.12;100.00
29815;BME280;16708;50.426;7.664;2023-03-20T06:52:02;990.67;;;8.14;100.00
29815;BME280;16708;50.426;7.664;2023-03-20T06:56:56;990.78;;;8.39;100.00
29815;BME280;16708;50.426;7.664;2023-03-20T07:01:51;990.77;;;8.34;100.00
29815;BME280;16708;50.426;7.664;2023-03-20T07:06:45;990.77;;;8.40;100.00
29815;BME280;16708;50.426;7.664;2023-03-20T07:11:40;990.65;;;8.50;100.00
29815;BME280;16708;50.426;7.664;2023-03-20T07:16:34;990.59;;;8.40;100.00
29815;BME280;16708;50.426;7.664;2023-03-20T07:21:28;990.57;;;8.49;100.00
29815;BME280;16708;50.426;7.664;2023-03-20T07:26:24;990.60;;;8.36;100.00
29815;BME280;16708;50.426;7.664;2023-03-20T07:31:14;990.80;;;7.96;100.00
29815;BME280;16708;50.426;7.664;2023-03-20T07:36:09;990.81;;;8.00;100.00
29815;BME280;16708;50.426;7.664;2023-03-20T07:41:04;990.88;;;8.20;100.00
29815;BME280;16708;50.426;7.664;2023-03-20T07:45:55;990.82;;;8.59;100.00
29815;BME280;16708;50.426;7.664;2023-03-20T07:50:49;990.80;;;8.51;100.00
29815;BME280;16708;50.426;7.664;2023-03-20T07:55:43;991.06;;;8.67;100.00
29815;BME280;16708;50.426;7.664;2023-03-20T08:00:37;991.11;;;8.32;100.00
29815;BME280;16708;50.426;7.664;2023-03-20T08:05:32;991.14;;;8.18;100.00
29815;BME280;16708;50.426;7.664;2023-03-20T08:10:26;991.13;;;8.31;100.00
29815;BME280;16708;50.426;7.664;2023-03-20T08:15:21;991.07;;;8.88;100.00
29815;BME280;16708;50.426;7.664;2023-03-20T08:20:15;991.14;;;9.03;100.00
29815;BME280;16708;50.426;7.664;2023-03-20T08:25:09;991.18;;;9.64;100.00
29815;BME280;16708;50.426;7.664;2023-03-20T08:30:05;991.21;;;9.52;100.00
29815;BME280;16708;50.426;7.664;2023-03-20T08:34:59;991.22;;;9.78;100.00
29815;BME280;16708;50.426;7.664;2023-03-20T08:39:53;991.12;;;9.66;100.00
29815;BME280;16708;50.426;7.664;2023-03-20T08:44:46;991.27;;;9.88;100.00
29815;BME280;16708;50.426;7.664;2023-03-20T08:49:40;991.22;;;9.88;100.00
29815;BME280;16708;50.426;7.664;2023-03-20T08:54:33;991.30;;;9.93;100.00
29815;BME280;16708;50.426;7.664;2023-03-20T08:59:27;991.32;;;9.82;100.00
29815;BME280;16708;50.426;7.664;2023-03-20T09:04:21;991.33;;;9.84;100.00
29815;BME280;16708;50.426;7.664;2023-03-20T09:09:16;991.33;;;9.76;100.00
29815;BME280;16708;50.426;7.664;2023-03-20T09:14:08;991.31;;;9.60;100.00
29815;BME280;16708;50.426;7.664;2023-03-20T09:19:02;991.39;;;9.32;100.00
29815;BME280;16708;50.426;7.664;2023-03-20T09:23:56;991.41;;;9.59;100.00
29815;BME280;16708;50.426;7.664;2023-03-20T09:28:51;991.41;;;9.46;100.00
29815;BME280;16708;50.426;7.664;2023-03-20T09:33:45;991.49;;;9.48;100.00
29815;BME280;16708;50.426;7.664;2023-03-20T09:38:40;991.35;;;10.07;100.00
29815;BME280;16708;50.426;7.664;2023-03-20T09:43:34;991.43;;;10.36;100.00
29815;BME280;16708;50.426;7.664;2023-03-20T09:53:23;991.39;;;10.30;100.00
29815;BME280;16708;50.426;7.664;2023-03-20T09:58:18;991.47;;;10.96;100.00
29815;BME280;16708;50.426;7.664;2023-03-20T10:03:12;991.58;;;11.11;100.00
29815;BME280;16708;50.426;7.664;2023-03-20T10:08:06;991.49;;;11.02;100.00
29815;BME280;16708;50.426;7.664;2023-03-20T10:13:01;991.53;;;10.98;100.00
29815;BME280;16708;50.426;7.664;2023-03-20T10:22:50;991.48;;;11.63;100.00
29815;BME280;16708;50.426;7.664;2023-03-20T10:42:26;991.37;;;13.51;86.39
29815;BME280;16708;50.426;7.664;2023-03-20T10:47:20;991.36;;;12.75;91.94
29815;BME280;16708;50.426;7.664;2023-03-20T10:52:14;991.37;;;11.99;89.78
29815;BME280;16708;50.426;7.664;2023-03-20T10:57:08;991.26;;;13.02;80.98
29815;BME280;16708;50.426;7.664;2023-03-20T11:11:50;991.18;;;11.64;80.20
29815;BME280;16708;50.426;7.664;2023-03-20T11:16:45;991.13;;;11.62;84.68
29815;BME280;16708;50.426;7.664;2023-03-20T11:21:39;991.15;;;11.91;80.02
29815;BME280;16708;50.426;7.664;2023-03-20T11:26:33;991.18;;;11.59;80.15
29815;BME280;16708;50.426;7.664;2023-03-20T11:41:14;991.06;;;11.41;82.22
29815;BME280;16708;50.426;7.664;2023-03-20T11:46:08;991.08;;;11.36;75.36
29815;BME280;16708;50.426;7.664;2023-03-20T11:51:02;991.12;;;11.13;76.34
29815;BME280;16708;50.426;7.664;2023-03-20T11:55:57;991.07;;;10.91;86.21
29815;BME280;16708;50.426;7.664;2023-03-20T12:05:45;991.03;;;10.30;83.01
29815;BME280;16708;50.426;7.664;2023-03-20T12:10:39;990.87;;;10.47;89.30
29815;BME280;16708;50.426;7.664;2023-03-20T12:15:33;990.80;;;10.73;79.92
29815;BME280;16708;50.426;7.664;2023-03-20T12:20:27;990.81;;;10.53;86.76
29815;BME280;16708;50.426;7.664;2023-03-20T12:25:22;990.82;;;10.86;83.90
29815;BME280;16708;50.426;7.664;2023-03-20T12:30:15;990.80;;;11.09;77.95
29815;BME280;16708;50.426;7.664;2023-03-20T12:35:09;990.71;;;10.96;77.93
29815;BME280;16708;50.426;7.664;2023-03-20T12:40:04;990.64;;;10.98;78.95
29815;BME280;16708;50.426;7.664;2023-03-20T12:44:56;990.58;;;10.60;83.58
29815;BME280;16708;50.426;7.664;2023-03-20T12:49:50;990.61;;;10.77;85.58
29815;BME280;16708;50.426;7.664;2023-03-20T13:24:08;990.33;;;10.43;88.72
29815;BME280;16708;50.426;7.664;2023-03-20T13:29:02;990.39;;;10.22;89.27
29815;BME280;16708;50.426;7.664;2023-03-20T13:38:51;990.26;;;10.06;89.42
29815;BME280;16708;50.426;7.664;2023-03-20T13:43:45;990.24;;;10.36;87.95
29815;BME280;16708;50.426;7.664;2023-03-20T14:03:22;990.32;;;10.57;77.21
29815;BME280;16708;50.426;7.664;2023-03-20T14:13:09;990.19;;;10.52;88.89
29815;BME280;16708;50.426;7.664;2023-03-20T14:22:56;990.26;;;9.90;91.89
29815;BME280;16708;50.426;7.664;2023-03-20T14:37:39;990.22;;;9.64;100.00
29815;BME280;16708;50.426;7.664;2023-03-20T14:47:29;990.34;;;9.25;100.00
29815;BME280;16708;50.426;7.664;2023-03-20T14:57:17;990.22;;;9.50;100.00
29815;BME280;16708;50.426;7.664;2023-03-20T15:02:11;990.19;;;9.43;100.00
29815;BME280;16708;50.426;7.664;2023-03-20T15:07:06;990.12;;;9.69;100.00
29815;BME280;16708;50.426;7.664;2023-03-20T15:12:00;990.18;;;9.91;100.00
29815;BME280;16708;50.426;7.664;2023-03-20T15:16:55;990.17;;;10.25;98.95
29815;BME280;16708;50.426;7.664;2023-03-20T15:21:49;990.13;;;10.13;100.00
29815;BME280;16708;50.426;7.664;2023-03-20T15:26:44;990.10;;;10.06;100.00
29815;BME280;16708;50.426;7.664;2023-03-20T15:31:38;990.08;;;9.65;100.00
29815;BME280;16708;50.426;7.664;2023-03-20T15:46:21;990.11;;;9.59;100.00
29815;BME280;16708;50.426;7.664;2023-03-20T15:51:14;989.99;;;9.91;100.00
29815;BME280;16708;50.426;7.664;2023-03-20T15:56:09;989.98;;;9.97;100.00
29815;BME280;16708;50.426;7.664;2023-03-20T16:01:02;989.88;;;9.64;100.00
29815;BME280;16708;50.426;7.664;2023-03-20T16:05:57;989.94;;;9.61;100.00
29815;BME280;16708;50.426;7.664;2023-03-20T16:10:51;989.89;;;9.41;100.00
29815;BME280;16708;50.426;7.664;2023-03-20T16:15:46;989.87;;;9.52;100.00
29815;BME280;16708;50.426;7.664;2023-03-20T16:20:39;989.88;;;9.50;100.00
29815;BME280;16708;50.426;7.664;2023-03-20T16:25:34;989.79;;;9.66;100.00
29815;BME280;16708;50.426;7.664;2023-03-20T16:30:28;989.88;;;9.92;100.00
29815;BME280;16708;50.426;7.664;2023-03-20T16:35:22;989.82;;;9.98;100.00
29815;BME280;16708;50.426;7.664;2023-03-20T16:40:17;989.85;;;9.68;100.00
29815;BME280;16708;50.426;7.664;2023-03-20T16:50:05;989.93;;;9.56;100.00
29815;BME280;16708;50.426;7.664;2023-03-20T16:54:59;989.93;;;9.45;100.00
29815;BME280;16708;50.426;7.664;2023-03-20T16:59:54;989.83;;;9.31;100.00
29815;BME280;16708;50.426;7.664;2023-03-20T17:04:46;989.87;;;9.27;100.00
29815;BME280;16708;50.426;7.664;2023-03-20T17:14:33;989.77;;;9.21;100.00
29815;BME280;16708;50.426;7.664;2023-03-20T17:19:28;989.78;;;9.22;100.00
29815;BME280;16708;50.426;7.664;2023-03-20T17:24:22;989.77;;;9.17;100.00
29815;BME280;16708;50.426;7.664;2023-03-20T17:29:17;989.79;;;9.51;100.00
29815;BME280;16708;50.426;7.664;2023-03-20T17:34:11;989.73;;;9.39;100.00
29815;BME280;16708;50.426;7.664;2023-03-20T17:39:04;989.80;;;9.02;100.00
29815;BME280;16708;50.426;7.664;2023-03-20T17:43:59;989.84;;;8.97;100.00
29815;BME280;16708;50.426;7.664;2023-03-20T17:48:53;989.98;;;8.96;100.00
29815;BME280;16708;50.426;7.664;2023-03-20T17:53:47;989.93;;;8.90;100.00
29815;BME280;16708;50.426;7.664;2023-03-20T17:58:41;989.92;;;8.80;100.00
29815;BME280;16708;50.426;7.664;2023-03-20T18:03:36;989.93;;;8.84;100.00
29815;BME280;16708;50.426;7.664;2023-03-20T18:08:30;989.90;;;8.79;100.00
29815;BME280;16708;50.426;7.664;2023-03-20T18:13:22;989.96;;;8.74;100.00
29815;BME280;16708;50.426;7.664;2023-03-20T18:18:15;989.97;;;8.73;100.00
29815;BME280;16708;50.426;7.664;2023-03-20T18:23:10;990.02;;;8.73;100.00
29815;BME280;16708;50.426;7.664;2023-03-20T18:28:03;990.00;;;8.71;100.00
29815;BME280;16708;50.426;7.664;2023-03-20T18:32:57;990.11;;;8.72;100.00
29815;BME280;16708;50.426;7.664;2023-03-20T18:37:52;990.08;;;8.68;100.00
29815;BME280;16708;50.426;7.664;2023-03-20T18:42:46;990.01;;;8.68;100.00
29815;BME280;16708;50.426;7.664;2023-03-20T18:47:40;990.04;;;8.65;100.00
29815;BME280;16708;50.426;7.664;2023-03-20T18:52:35;990.08;;;8.67;100.00
29815;BME280;16708;50.426;7.664;2023-03-20T18:57:29;990.07;;;8.64;100.00
29815;BME280;16708;50.426;7.664;2023-03-20T19:02:23;990.03;;;8.69;100.00
29815;BME280;16708;50.426;7.664;2023-03-20T19:07:18;989.90;;;8.79;100.00
29815;BME280;16708;50.426;7.664;2023-03-20T19:12:12;989.98;;;8.69;100.00
29815;BME280;16708;50.426;7.664;2023-03-20T19:17:06;989.91;;;8.83;100.00
29815;BME280;16708;50.426;7.664;2023-03-20T19:21:58;989.94;;;8.72;100.00
29815;BME280;16708;50.426;7.664;2023-03-20T19:26:52;989.83;;;8.65;100.00
29815;BME280;16708;50.426;7.664;2023-03-20T19:31:46;989.81;;;8.62;100.00
29815;BME280;16708;50.426;7.664;2023-03-20T19:36:41;989.88;;;8.57;100.00
29815;BME280;16708;50.426;7.664;2023-03-20T19:41:35;989.81;;;8.56;100.00
29815;BME280;16708;50.426;7.664;2023-03-20T19:46:28;989.96;;;8.52;100.00
29815;BME280;16708;50.426;7.664;2023-03-20T19:51:22;989.92;;;8.55;100.00
29815;BME280;16708;50.426;7.664;2023-03-20T19:56:16;989.97;;;8.56;100.00
29815;BME280;16708;50.426;7.664;2023-03-20T20:01:10;989.94;;;8.57;100.00
29815;BME280;16708;50.426;7.664;2023-03-20T20:06:03;989.81;;;8.57;100.00
29815;BME280;16708;50.426;7.664;2023-03-20T20:10:57;989.81;;;8.51;100.00
29815;BME280;16708;50.426;7.664;2023-03-20T20:15:50;989.85;;;8.49;100.00
29815;BME280;16708;50.426;7.664;2023-03-20T20:20:44;989.85;;;8.49;100.00
29815;BME280;16708;50.426;7.664;2023-03-20T20:25:38;989.81;;;8.38;100.00
29815;BME280;16708;50.426;7.664;2023-03-20T20:30:31;989.84;;;8.40;100.00
29815;BME280;16708;50.426;7.664;2023-03-20T20:35:25;989.79;;;8.37;100.00
29815;BME280;16708;50.426;7.664;2023-03-20T20:40:19;989.82;;;8.36;100.00
29815;BME280;16708;50.426;7.664;2023-03-20T20:45:13;989.80;;;8.38;100.00
29815;BME280;16708;50.426;7.664;2023-03-20T20:50:07;989.78;;;8.35;100.00
29815;BME280;16708;50.426;7.664;2023-03-20T20:55:01;989.68;;;8.34;100.00
29815;BME280;16708;50.426;7.664;2023-03-20T20:59:55;989.80;;;8.39;100.00
29815;BME280;16708;50.426;7.664;2023-03-20T21:04:49;989.84;;;8.67;100.00
29815;BME280;16708;50.426;7.664;2023-03-20T21:09:43;989.85;;;8.60;100.00
29815;BME280;16708;50.426;7.664;2023-03-20T21:14:37;989.87;;;8.50;100.00
29815;BME280;16708;50.426;7.664;2023-03-20T21:19:31;989.91;;;8.48;100.00
29815;BME280;16708;50.426;7.664;2023-03-20T21:24:26;989.92;;;8.47;100.00
29815;BME280;16708;50.426;7.664;2023-03-20T21:29:20;989.88;;;8.45;100.00
29815;BME280;16708;50.426;7.664;2023-03-20T21:34:15;989.92;;;8.44;100.00
29815;BME280;16708;50.426;7.664;2023-03-20T21:39:09;989.98;;;8.49;100.00
29815;BME280;16708;50.426;7.664;2023-03-20T21:44:02;989.86;;;8.48;100.00
29815;BME280;16708;50.426;7.664;2023-03-20T21:48:56;989.88;;;8.46;100.00
29815;BME280;16708;50.426;7.664;2023-03-20T21:53:51;989.86;;;8.47;100.00
29815;BME280;16708;50.426;7.664;2023-03-20T21:58:45;989.85;;;8.49;100.00
29815;BME280;16708;50.426;7.664;2023-03-20T22:03:39;989.88;;;8.48;100.00
29815;BME280;16708;50.426;7.664;2023-03-20T22:08:34;989.82;;;8.49;100.00
29815;BME280;16708;50.426;7.664;2023-03-20T22:13:28;989.74;;;8.46;100.00
29815;BME280;16708;50.426;7.664;2023-03-20T22:18:23;989.76;;;8.44;100.00
29815;BME280;16708;50.426;7.664;2023-03-20T22:23:16;989.81;;;8.40;100.00
29815;BME280;16708;50.426;7.664;2023-03-20T22:28:09;989.82;;;8.41;100.00
29815;BME280;16708;50.426;7.664;2023-03-20T22:33:00;989.84;;;8.44;100.00
29815;BME280;16708;50.426;7.664;2023-03-20T22:37:54;989.81;;;8.37;100.00
29815;BME280;16708;50.426;7.664;2023-03-20T22:42:47;989.71;;;8.44;100.00
29815;BME280;16708;50.426;7.664;2023-03-20T22:47:39;989.74;;;8.43;100.00
29815;BME280;16708;50.426;7.664;2023-03-20T22:52:34;989.70;;;8.40;100.00
29815;BME280;16708;50.426;7.664;2023-03-20T22:57:28;989.66;;;8.34;100.00
29815;BME280;16708;50.426;7.664;2023-03-20T23:02:23;989.65;;;8.32;100.00
29815;BME280;16708;50.426;7.664;2023-03-20T23:07:16;989.71;;;8.37;100.00
29815;BME280;16708;50.426;7.664;2023-03-20T23:12:10;989.57;;;8.38;100.00
29815;BME280;16708;50.426;7.664;2023-03-20T23:17:05;989.65;;;8.38;100.00
29815;BME280;16708;50.426;7.664;2023-03-20T23:21:59;989.61;;;8.37;100.00
29815;BME280;16708;50.426;7.664;2023-03-20T23:26:53;989.58;;;8.37;100.00
29815;BME280;16708;50.426;7.664;2023-03-20T23:31:46;989.60;;;8.40;100.00
29815;BME280;16708;50.426;7.664;2023-03-20T23:36:40;989.61;;;8.34;100.00
29815;BME280;16708;50.426;7.664;2023-03-20T23:41:34;989.49;;;8.37;100.00
29815;BME280;16708;50.426;7.664;2023-03-20T23:46:28;989.51;;;8.36;100.00
29815;BME280;16708;50.426;7.664;2023-03-20T23:51:20;989.49;;;8.33;100.00
29815;BME280;16708;50.426;7.664;2023-03-20T23:56:13;989.45;;;8.34;100.00
